createdAt,value
2022-08-07T00:02:37.330Z,1.70
2022-08-07T00:05:05.754Z,1.85
2022-08-07T00:07:40.438Z,1.73
2022-08-07T00:10:25.859Z,1.88
2022-08-07T00:12:57.789Z,1.98
2022-08-07T00:15:38.633Z,2.22
2022-08-07T00:18:24.458Z,2.00
2022-08-07T00:20:57.590Z,2.03
2022-08-07T00:23:31.815Z,2.65
2022-08-07T00:26:12.835Z,2.13
2022-08-07T00:28:55.640Z,2.70
2022-08-07T00:31:38.463Z,2.10
2022-08-07T00:34:11.747Z,2.50
2022-08-07T00:36:43.172Z,2.25
2022-08-07T00:39:17.371Z,2.55
2022-08-07T00:42:01.728Z,1.85
2022-08-07T00:44:35.411Z,2.28
2022-08-07T00:47:16.134Z,1.90
2022-08-07T00:50:20.457Z,2.20
2022-08-07T00:52:48.439Z,2.22
2022-08-07T00:55:25.620Z,2.22
2022-08-07T00:58:07.525Z,2.30
2022-08-07T01:00:38.225Z,2.80
2022-08-07T01:03:55.510Z,2.28
2022-08-07T01:06:13.469Z,2.15
2022-08-07T01:08:53.507Z,2.35
2022-08-07T01:12:23.295Z,2.92
2022-08-07T01:14:15.596Z,2.20
2022-08-07T01:16:47.987Z,2.33
2022-08-07T01:19:20.916Z,2.17
2022-08-07T01:21:55.696Z,2.75
2022-08-07T01:24:32.362Z,2.50
2022-08-07T01:27:03.922Z,2.50
2022-08-07T01:29:34.488Z,2.53
2022-08-07T01:32:12.340Z,4.00
2022-08-07T01:34:47.376Z,2.80
2022-08-07T01:37:20.107Z,2.13
2022-08-07T01:39:51.955Z,2.42
2022-08-07T01:42:37.910Z,2.83
2022-08-07T01:45:17.770Z,2.70
2022-08-07T01:48:29.783Z,2.97
2022-08-07T01:50:43.612Z,2.70
2022-08-07T01:53:21.064Z,2.65
2022-08-07T01:55:59.385Z,2.47
2022-08-07T01:58:37.468Z,2.70
2022-08-07T02:02:02.104Z,2.45
2022-08-07T02:04:26.655Z,2.47
2022-08-07T02:07:00.474Z,2.83
2022-08-07T02:09:51.690Z,2.50
2022-08-07T02:12:29.404Z,3.15
2022-08-07T02:15:06.808Z,2.70
2022-08-07T02:17:49.201Z,2.60
2022-08-07T02:20:23.829Z,2.88
2022-08-07T02:23:01.671Z,3.33
2022-08-07T02:26:31.474Z,2.92
2022-08-07T02:28:31.394Z,2.95
2022-08-07T02:31:10.362Z,3.50
2022-08-07T02:36:49.676Z,3.60
2022-08-07T02:39:43.290Z,2.65
2022-08-07T02:42:16.423Z,3.28
2022-08-07T02:44:51.043Z,3.08
2022-08-07T02:47:24.843Z,3.10
2022-08-07T02:50:02.138Z,3.25
2022-08-07T02:52:44.212Z,3.08
2022-08-07T02:55:28.321Z,3.03
2022-08-07T02:58:21.644Z,2.90
2022-08-07T03:00:55.384Z,3.35
2022-08-07T03:03:49.297Z,3.25
2022-08-07T03:06:32.048Z,3.20
2022-08-07T03:09:07.530Z,3.53
2022-08-07T03:11:51.818Z,3.53
2022-08-07T03:14:30.875Z,4.10
2022-08-07T03:17:00.860Z,3.72
2022-08-07T03:19:37.303Z,3.53
2022-08-07T03:22:18.550Z,3.60
2022-08-07T03:24:50.614Z,3.50
2022-08-07T03:27:30.399Z,3.70
2022-08-07T03:30:03.914Z,3.17
2022-08-07T03:32:48.945Z,3.75
2022-08-07T03:35:26.330Z,3.70
2022-08-07T03:38:01.821Z,4.70
2022-08-07T03:40:36.201Z,3.72
2022-08-07T03:43:14.869Z,4.22
2022-08-07T03:45:49.351Z,3.83
2022-08-07T03:48:24.550Z,4.00
2022-08-07T03:50:58.070Z,3.80
2022-08-07T03:54:02.047Z,4.30
2022-08-07T03:56:33.159Z,3.80
2022-08-07T03:59:13.381Z,3.97
2022-08-07T04:01:49.826Z,4.35
2022-08-07T04:04:24.584Z,3.50
2022-08-07T04:07:00.383Z,4.53
2022-08-07T04:09:45.226Z,3.80
2022-08-07T04:12:28.250Z,3.37
2022-08-07T04:15:01.218Z,3.50
2022-08-07T04:18:31.190Z,3.90
2022-08-07T04:20:25.375Z,3.72
2022-08-07T04:23:01.180Z,4.70
2022-08-07T04:25:39.181Z,4.47
2022-08-07T04:28:13.268Z,4.20
2022-08-07T04:30:56.974Z,4.07
2022-08-07T04:33:36.212Z,4.30
2022-08-07T04:36:08.860Z,4.90
2022-08-07T04:38:42.720Z,4.40
2022-08-07T04:41:18.059Z,4.40
2022-08-07T04:44:10.111Z,4.63
2022-08-07T04:47:03.860Z,4.10
2022-08-07T04:50:10.899Z,4.47
2022-08-07T04:52:53.737Z,4.68
2022-08-07T04:58:11.572Z,5.53
2022-08-07T04:59:15.943Z,5.00
2022-08-07T05:01:45.710Z,5.10
2022-08-07T05:04:34.132Z,5.15
2022-08-07T05:07:20.212Z,4.50
2022-08-07T05:09:59.531Z,4.93
2022-08-07T05:12:46.303Z,5.70
2022-08-07T05:15:28.087Z,5.75
2022-08-07T05:18:08.773Z,5.43
2022-08-07T05:20:53.800Z,4.82
2022-08-07T05:26:28.724Z,4.70
2022-08-07T05:29:06.863Z,6.35
2022-08-07T05:31:51.159Z,5.68
2022-08-07T05:34:27.688Z,6.68
2022-08-07T05:36:58.563Z,5.50
2022-08-07T05:40:13.581Z,6.50
2022-08-07T05:42:34.729Z,5.63
2022-08-07T05:45:26.127Z,5.85
2022-08-07T05:48:07.068Z,6.93
2022-08-07T05:50:43.416Z,5.47
2022-08-07T05:54:13.219Z,5.25
2022-08-07T05:56:06.910Z,6.70
2022-08-07T05:58:52.850Z,6.50
2022-08-07T06:01:26.545Z,5.22
2022-08-07T06:04:07.703Z,6.28
2022-08-07T06:06:46.322Z,6.28
2022-08-07T06:09:20.259Z,5.68
2022-08-07T06:12:15.411Z,6.40
2022-08-07T06:14:49.645Z,7.07
2022-08-07T06:17:22.503Z,7.05
2022-08-07T06:20:04.076Z,6.70
2022-08-07T06:22:40.271Z,7.07
2022-08-07T06:25:34.853Z,6.45
2022-08-07T06:28:08.292Z,6.07
2022-08-07T06:30:45.638Z,6.18
2022-08-07T06:33:22.606Z,6.20
2022-08-07T06:36:13.003Z,6.32
2022-08-07T06:38:58.453Z,5.88
2022-08-07T06:42:02.477Z,5.63
2022-08-07T06:45:00.286Z,6.32
2022-08-07T06:50:20.600Z,5.93
2022-08-07T06:52:55.928Z,5.72
2022-08-07T06:56:00.489Z,6.38
2022-08-07T06:58:28.737Z,6.00
2022-08-07T07:01:08.510Z,5.27
2022-08-07T07:03:48.187Z,5.82
2022-08-07T07:06:23.907Z,5.60
2022-08-07T07:08:58.130Z,6.10
2022-08-07T07:12:07.748Z,5.57
2022-08-07T07:14:21.801Z,5.55
2022-08-07T07:16:54.493Z,5.07
2022-08-07T07:19:57.281Z,4.85
2022-08-07T07:22:36.744Z,4.55
2022-08-07T07:26:30.631Z,5.43
2022-08-07T07:28:29.814Z,4.68
2022-08-07T07:31:11.228Z,4.10
2022-08-07T07:33:54.996Z,5.03
2022-08-07T07:36:32.362Z,4.97
2022-08-07T07:39:03.946Z,5.50
2022-08-07T07:42:02.145Z,4.90
2022-08-07T07:47:09.288Z,4.50
2022-08-07T07:50:34.755Z,4.03
2022-08-07T07:52:42.124Z,4.38
2022-08-07T07:55:12.648Z,3.63
2022-08-07T07:57:53.169Z,4.60
2022-08-07T08:00:31.504Z,4.60
2022-08-07T08:03:16.730Z,3.88
2022-08-07T08:05:55.211Z,3.58
2022-08-07T08:08:34.581Z,3.05
2022-08-07T08:11:16.526Z,4.10
2022-08-07T08:13:53.352Z,3.63
2022-08-07T08:16:31.209Z,2.63
2022-08-07T08:19:18.048Z,2.53
2022-08-07T08:22:06.386Z,2.70
2022-08-07T08:25:04.729Z,2.78
2022-08-07T08:27:56.043Z,3.20
2022-08-07T08:30:29.683Z,2.47
2022-08-07T08:33:04.487Z,2.42
2022-08-07T08:35:42.909Z,2.60
2022-08-07T08:38:19.662Z,2.67
2022-08-07T08:40:57.413Z,2.38
2022-08-07T08:43:42.925Z,2.67
2022-08-07T08:46:49.126Z,1.90
2022-08-07T08:50:02.537Z,2.25
2022-08-07T08:52:54.138Z,1.45
2022-08-07T08:55:54.464Z,1.40
2022-08-07T08:58:38.634Z,2.10
2022-08-07T09:01:18.763Z,2.10
2022-08-07T09:04:01.362Z,1.55
2022-08-07T09:09:44.675Z,1.13
2022-08-07T09:12:36.398Z,2.00
2022-08-07T09:16:23.130Z,1.50
2022-08-07T09:18:25.878Z,1.48
2022-08-07T09:21:34.406Z,1.17
2022-08-07T09:25:01.610Z,1.80
2022-08-07T09:28:03.277Z,1.40
2022-08-07T09:30:54.725Z,1.20
2022-08-07T09:33:56.803Z,1.40
2022-08-07T09:36:46.700Z,1.42
2022-08-07T09:39:53.669Z,1.42
2022-08-07T09:42:51.464Z,1.27
2022-08-07T09:47:50.260Z,0.90
2022-08-07T09:50:02.605Z,1.13
2022-08-07T09:52:16.043Z,1.55
2022-08-07T09:55:16.934Z,1.13
2022-08-07T09:58:26.212Z,1.58
2022-08-07T10:01:52.213Z,1.10
2022-08-07T10:04:17.514Z,1.50
2022-08-07T10:07:26.302Z,1.20
2022-08-07T10:10:03.903Z,1.45
2022-08-07T10:13:11.109Z,1.33
2022-08-07T10:22:24.925Z,1.50
2022-08-07T10:25:53.180Z,1.38
2022-08-07T10:28:49.350Z,1.40
2022-08-07T10:31:39.081Z,1.48
2022-08-07T10:34:32.255Z,1.20
2022-08-07T10:37:26.411Z,1.45
2022-08-07T10:40:24.299Z,1.35
2022-08-07T10:43:34.430Z,1.02
2022-08-07T10:46:12.280Z,1.35
2022-08-07T10:48:59.177Z,1.13
2022-08-07T10:52:13.151Z,1.55
2022-08-07T10:54:53.362Z,1.23
2022-08-07T10:57:51.540Z,1.55
2022-08-07T11:00:39.774Z,1.85
2022-08-07T11:03:37.321Z,1.80
2022-08-07T11:06:26.883Z,1.60
2022-08-07T11:09:11.475Z,1.75
2022-08-07T11:11:59.448Z,1.48
2022-08-07T11:14:56.884Z,1.58
2022-08-07T11:17:55.506Z,1.50
2022-08-07T11:20:49.281Z,1.27
2022-08-07T11:23:30.665Z,1.60
2022-08-07T11:26:27.840Z,1.60
2022-08-07T11:29:13.128Z,1.58
2022-08-07T11:32:25.815Z,1.70
2022-08-07T11:35:02.417Z,1.50
2022-08-07T11:37:58.046Z,1.48
2022-08-07T11:40:49.473Z,1.50
2022-08-07T11:43:41.635Z,1.60
2022-08-07T11:46:48.693Z,1.30
2022-08-07T11:50:18.632Z,1.38
2022-08-07T11:53:06.604Z,1.70
2022-08-07T11:56:25.508Z,1.50
2022-08-07T12:00:08.149Z,1.60
2022-08-07T12:02:20.926Z,1.70
2022-08-07T12:05:41.283Z,1.73
2022-08-07T12:08:34.470Z,1.58
2022-08-07T12:11:24.974Z,1.40
2022-08-07T12:14:18.956Z,1.42
2022-08-07T12:16:58.751Z,1.83
2022-08-07T12:20:06.340Z,2.88
2022-08-07T12:22:58.458Z,2.03
2022-08-07T12:26:21.571Z,1.70
2022-08-07T12:29:08.822Z,6.13
2022-08-07T12:32:03.781Z,2.72
2022-08-07T12:34:49.501Z,2.00
2022-08-07T12:37:27.798Z,2.13
2022-08-07T12:40:44.933Z,2.10
2022-08-07T12:43:09.432Z,1.65
2022-08-07T12:45:55.205Z,2.80
2022-08-07T12:48:41.471Z,2.10
2022-08-07T12:51:33.240Z,1.92
2022-08-07T12:54:36.859Z,2.72
2022-08-07T12:57:10.259Z,2.05
2022-08-07T12:59:54.701Z,2.03
2022-08-07T13:03:06.718Z,1.83
2022-08-07T13:06:03.652Z,1.60
2022-08-07T13:10:19.770Z,1.70
2022-08-07T13:12:31.743Z,1.50
2022-08-07T13:15:04.549Z,1.60
2022-08-07T13:17:49.660Z,1.80
2022-08-07T13:20:27.588Z,1.60
2022-08-07T13:23:10.060Z,1.73
2022-08-07T13:26:20.227Z,1.42
2022-08-07T13:29:00.799Z,1.25
2022-08-07T13:31:55.036Z,1.80
2022-08-07T13:34:48.571Z,1.30
2022-08-07T13:37:55.563Z,1.70
2022-08-07T13:40:42.267Z,1.60
2022-08-07T13:43:18.403Z,1.70
2022-08-07T13:46:21.530Z,1.50
2022-08-07T13:48:58.382Z,1.95
2022-08-07T13:52:04.520Z,1.60
2022-08-07T13:54:23.728Z,1.50
2022-08-07T13:56:59.769Z,1.48
2022-08-07T13:59:33.383Z,1.45
2022-08-07T14:02:12.893Z,1.35
2022-08-07T14:04:54.878Z,1.30
2022-08-07T14:07:30.546Z,1.60
2022-08-07T14:10:17.525Z,1.55
2022-08-07T14:13:00.784Z,1.02
2022-08-07T14:15:43.218Z,1.13
2022-08-07T14:18:29.803Z,1.30
2022-08-07T14:22:00.442Z,1.40
2022-08-07T14:24:13.788Z,1.55
2022-08-07T14:26:57.481Z,1.52
2022-08-07T14:30:10.064Z,1.83
2022-08-07T14:32:42.910Z,1.70
2022-08-07T14:35:43.312Z,1.67
2022-08-07T14:38:26.588Z,1.30
2022-08-07T14:41:12.109Z,1.45
2022-08-07T14:43:58.342Z,1.50
2022-08-07T14:46:52.020Z,1.23
2022-08-07T14:52:27.989Z,1.52
2022-08-07T14:55:01.181Z,1.80
2022-08-07T14:57:58.340Z,1.63
2022-08-07T15:00:31.167Z,1.52
2022-08-07T15:03:17.438Z,1.40
2022-08-07T15:05:55.342Z,1.10
2022-08-07T15:08:50.083Z,1.63
2022-08-07T15:11:53.270Z,1.50
2022-08-07T15:14:30.353Z,1.30
2022-08-07T15:17:04.262Z,1.60
2022-08-07T15:20:33.747Z,1.52
2022-08-07T15:22:33.495Z,1.48
2022-08-07T15:25:19.599Z,1.20
2022-08-07T15:28:32.907Z,1.10
2022-08-07T15:31:04.721Z,1.52
2022-08-07T15:33:37.032Z,1.33
2022-08-07T15:36:09.500Z,1.30
2022-08-07T15:38:58.489Z,1.63
2022-08-07T15:42:45.154Z,1.40
2022-08-07T15:44:26.312Z,1.27
2022-08-07T15:47:08.849Z,1.27
2022-08-07T15:52:40.436Z,1.73
2022-08-07T15:55:14.339Z,1.83
2022-08-07T15:57:49.892Z,1.58
2022-08-07T16:00:33.436Z,1.70
2022-08-07T16:03:21.861Z,1.70
2022-08-07T16:06:08.012Z,1.65
2022-08-07T16:08:45.580Z,1.70
2022-08-07T16:11:57.479Z,1.50
2022-08-07T16:15:01.998Z,1.67
2022-08-07T16:18:02.850Z,1.60
2022-08-07T16:21:56.981Z,1.70
2022-08-07T16:24:34.420Z,1.88
2022-08-07T16:27:25.783Z,1.77
2022-08-07T16:30:29.472Z,1.98
2022-08-07T16:34:01.508Z,2.38
2022-08-07T16:36:47.914Z,2.20
2022-08-07T16:40:28.291Z,2.28
2022-08-07T16:43:21.617Z,1.80
2022-08-07T16:46:33.543Z,2.05
2022-08-07T16:50:20.673Z,1.80
2022-08-07T16:52:55.754Z,2.08
2022-08-07T16:55:47.079Z,2.00
2022-08-07T16:58:19.935Z,2.05
2022-08-07T17:01:03.518Z,2.17
2022-08-07T17:03:59.842Z,2.15
2022-08-07T17:07:14.440Z,2.00
2022-08-07T17:10:30.197Z,2.10
2022-08-07T17:13:22.702Z,2.05
2022-08-07T17:16:11.113Z,1.70
2022-08-07T17:18:47.336Z,1.80
2022-08-07T17:21:23.002Z,2.22
2022-08-07T17:24:04.683Z,1.75
2022-08-07T17:26:49.796Z,1.77
2022-08-07T17:30:15.025Z,1.63
2022-08-07T17:32:30.291Z,2.13
2022-08-07T17:35:51.817Z,2.03
2022-08-07T17:38:19.965Z,2.25
2022-08-07T17:42:03.955Z,2.10
2022-08-07T17:44:42.805Z,1.88
2022-08-07T17:47:41.773Z,2.47
2022-08-07T17:50:30.340Z,1.90
2022-08-07T17:53:06.122Z,1.40
2022-08-07T17:55:55.631Z,1.80
2022-08-07T17:58:59.109Z,1.33
2022-08-07T18:01:37.240Z,1.88
2022-08-07T18:04:16.961Z,2.40
2022-08-07T18:07:20.457Z,1.80
2022-08-07T18:10:06.063Z,2.03
2022-08-07T18:12:55.724Z,1.85
2022-08-07T18:15:32.900Z,1.52
2022-08-07T18:21:01.486Z,1.70
2022-08-07T18:21:28.192Z,1.38
2022-08-07T18:24:33.923Z,1.65
2022-08-07T18:27:17.266Z,1.40
2022-08-07T18:30:05.978Z,1.65
2022-08-07T18:32:55.074Z,1.63
2022-08-07T18:36:03.122Z,1.63
2022-08-07T18:39:01.458Z,1.92
2022-08-07T18:42:05.603Z,1.95
2022-08-07T18:48:00.759Z,1.40
2022-08-07T18:50:52.483Z,1.70
2022-08-07T18:53:55.699Z,1.92
2022-08-07T18:57:23.206Z,1.30
2022-08-07T18:59:58.868Z,1.48
2022-08-07T19:02:42.798Z,2.45
2022-08-07T19:06:02.634Z,1.20
2022-08-07T19:08:27.715Z,1.40
2022-08-07T19:11:34.965Z,1.50
2022-08-07T19:14:08.082Z,1.20
2022-08-07T19:17:08.154Z,1.35
2022-08-07T19:20:05.996Z,1.70
2022-08-07T19:23:59.162Z,1.23
2022-08-07T19:26:23.395Z,1.45
2022-08-07T19:31:05.260Z,1.38
2022-08-07T19:32:17.488Z,1.80
2022-08-07T19:35:04.699Z,1.55
2022-08-07T19:37:56.424Z,1.73
2022-08-07T19:40:34.704Z,1.75
2022-08-07T19:43:12.737Z,1.38
2022-08-07T19:46:04.816Z,1.30
2022-08-07T19:48:44.143Z,1.27
2022-08-07T19:51:24.214Z,1.50
2022-08-07T19:54:34.121Z,1.48
2022-08-07T19:58:01.224Z,1.60
2022-08-07T20:00:28.468Z,1.67
2022-08-07T20:03:34.565Z,1.70
2022-08-07T20:06:28.520Z,1.70
2022-08-07T20:09:46.401Z,1.73
2022-08-07T20:12:31.294Z,1.55
2022-08-07T20:14:58.873Z,1.42
2022-08-07T20:17:29.697Z,2.13
2022-08-07T20:20:00.906Z,1.42
2022-08-07T20:22:34.189Z,1.52
2022-08-07T20:25:19.928Z,1.70
2022-08-07T20:27:58.508Z,1.85
2022-08-07T20:30:39.516Z,1.80
2022-08-07T20:33:36.751Z,1.70
2022-08-07T20:36:10.772Z,1.52
2022-08-07T20:38:56.810Z,1.85
2022-08-07T20:41:34.143Z,1.58
2022-08-07T20:44:12.606Z,1.60
2022-08-07T20:46:45.151Z,1.90
2022-08-07T20:49:58.445Z,1.90
2022-08-07T20:52:21.206Z,1.90
2022-08-07T20:54:59.737Z,1.98
2022-08-07T20:57:32.411Z,1.88
2022-08-07T21:00:09.475Z,1.92
2022-08-07T21:03:01.855Z,1.80
2022-08-07T21:05:51.380Z,2.20
2022-08-07T21:08:37.035Z,1.80
2022-08-07T21:16:30.269Z,2.13
2022-08-07T21:19:02.534Z,2.20
2022-08-07T21:24:34.823Z,2.08
2022-08-07T21:27:22.584Z,2.35
2022-08-07T21:30:08.946Z,1.85
2022-08-07T21:32:50.306Z,2.42
2022-08-07T21:35:34.704Z,2.08
2022-08-07T21:39:00.910Z,2.25
2022-08-07T21:41:52.217Z,2.17
2022-08-07T21:44:56.735Z,2.50
2022-08-07T21:47:37.395Z,2.75
2022-08-07T21:50:14.519Z,2.15
2022-08-07T21:52:55.158Z,3.17
2022-08-07T21:55:49.441Z,2.00
2022-08-07T21:58:45.860Z,2.33
2022-08-07T22:02:07.173Z,2.20
2022-08-07T22:04:20.552Z,2.78
2022-08-07T22:07:03.744Z,2.20
2022-08-07T22:09:54.447Z,2.53
2022-08-07T22:12:35.171Z,2.50
2022-08-07T22:16:39.514Z,2.70
2022-08-07T22:18:05.858Z,2.67
2022-08-07T22:20:57.130Z,2.40
2022-08-07T22:23:30.003Z,2.45
2022-08-07T22:28:40.973Z,2.90
2022-08-07T22:31:59.141Z,2.90
2022-08-07T22:34:40.659Z,2.50
2022-08-07T22:38:03.211Z,2.40
2022-08-07T22:40:56.146Z,2.58
2022-08-07T22:43:36.028Z,2.42
2022-08-07T22:46:46.750Z,2.35
2022-08-07T22:49:23.470Z,2.65
2022-08-07T22:52:19.580Z,2.90
2022-08-07T22:55:30.217Z,2.70
2022-08-07T22:58:28.071Z,3.22
2022-08-07T23:01:25.457Z,3.15
2022-08-07T23:04:30.660Z,2.28
2022-08-07T23:07:33.585Z,2.80
2022-08-07T23:10:37.539Z,2.45
2022-08-07T23:14:09.641Z,3.03
2022-08-07T23:16:55.974Z,3.20
2022-08-07T23:19:51.356Z,4.05
2022-08-07T23:22:35.200Z,3.78
2022-08-07T23:25:23.139Z,3.25
2022-08-07T23:28:33.199Z,3.33
2022-08-07T23:32:49.106Z,3.45
2022-08-07T23:34:42.120Z,3.70
2022-08-07T23:37:33.996Z,3.40
2022-08-07T23:40:41.275Z,3.67
2022-08-07T23:44:07.711Z,3.05
2022-08-07T23:46:53.980Z,4.68
2022-08-07T23:49:59.829Z,3.38
2022-08-07T23:53:00.637Z,3.78
2022-08-07T23:55:52.547Z,3.58
2022-08-07T23:58:28.409Z,3.65
